Time;durP1;ratioP1;P1;durP2;ratioP2;P2;SDS_P1;SDS_P2;PMS_P1;PMS_P2;Temp;Humidity;BMP_temperature;BMP_pressure;BME280_temperature;BME280_humidity;BME280_pressure;Samples;Min_cycle;Max_cycle;Signal;HPM_P1;HPM_P2
2021/07/17 00:02:46;;;;;;;21.30;12.87;;;;;;;;;;6144241;28;20515;-80
2021/07/17 00:05:48;;;;;;;21.87;12.63;;;;;;;;;;6162032;28;20531;-80
2021/07/17 00:08:50;;;;;;;25.77;13.40;;;;;;;;;;6147553;28;20075;-80
2021/07/17 00:11:52;;;;;;;21.73;12.50;;;;;;;;;;6138270;29;20048;-80
2021/07/17 00:14:55;;;;;;;21.27;12.23;;;;;;;;;;6123226;29;20040;-81
2021/07/17 00:17:56;;;;;;;23.02;13.00;;;;;;;;;;6121453;29;20047;-80
2021/07/17 00:20:58;;;;;;;21.30;12.55;;;;;;;;;;6122942;29;20044;-80
2021/07/17 00:24:00;;;;;;;25.00;12.70;;;;;;;;;;6149966;28;20507;-80
2021/07/17 00:27:02;;;;;;;22.40;11.77;;;;;;;;;;6134946;28;20035;-80
2021/07/17 00:30:05;;;;;;;24.95;13.23;;;;;;;;;;6137988;29;20067;-80
2021/07/17 00:33:06;;;;;;;25.13;13.00;;;;;;;;;;6136953;28;20119;-80
2021/07/17 00:36:08;;;;;;;22.63;12.60;;;;;;;;;;6122387;29;20151;-80
2021/07/17 00:39:10;;;;;;;20.85;11.90;;;;;;;;;;6120078;29;20047;-80
2021/07/17 00:42:11;;;;;;;19.75;11.25;;;;;;;;;;6136605;28;20043;-80
2021/07/17 00:45:14;;;;;;;19.40;12.40;;;;;;;;;;6134027;29;20207;-80
2021/07/17 00:48:15;;;;;;;21.88;10.98;;;;;;;;;;6143511;28;20055;-80
2021/07/17 00:51:17;;;;;;;23.02;12.57;;;;;;;;;;6144972;28;20526;-80
2021/07/17 00:54:20;;;;;;;22.13;12.73;;;;;;;;;;6145621;28;20043;-80
2021/07/17 00:57:23;;;;;;;24.30;13.13;;;;;;;;;;6145403;28;20115;-80
2021/07/17 01:00:24;;;;;;;25.10;13.10;;;;;;;;;;6147797;28;20075;-80
2021/07/17 01:03:27;;;;;;;19.63;12.75;;;;;;;;;;6162198;28;20421;-80
2021/07/17 01:06:29;;;;;;;19.35;12.57;;;;;;;;;;6163790;28;20074;-80
2021/07/17 01:09:31;;;;;;;18.98;11.90;;;;;;;;;;6150865;28;20058;-80
2021/07/17 01:12:33;;;;;;;22.23;12.60;;;;;;;;;;6132555;28;20072;-80
2021/07/17 01:15:35;;;;;;;21.43;11.20;;;;;;;;;;6123931;29;20564;-80
2021/07/17 01:18:36;;;;;;;20.73;12.18;;;;;;;;;;6145799;28;20059;-80
2021/07/17 01:21:38;;;;;;;21.20;11.15;;;;;;;;;;6150325;28;20038;-80
2021/07/17 01:24:42;;;;;;;21.08;11.48;;;;;;;;;;6150766;28;20043;-80
2021/07/17 01:27:44;;;;;;;20.92;11.57;;;;;;;;;;6123796;29;20111;-80
2021/07/17 01:30:46;;;;;;;18.45;10.93;;;;;;;;;;6124848;29;20524;-81
2021/07/17 01:33:48;;;;;;;22.95;11.38;;;;;;;;;;6123770;29;20098;-80
2021/07/17 01:36:49;;;;;;;20.90;11.75;;;;;;;;;;6129808;28;20163;-80
2021/07/17 01:39:51;;;;;;;20.45;11.98;;;;;;;;;;6157278;28;20548;-81
2021/07/17 01:42:55;;;;;;;20.23;10.73;;;;;;;;;;6142435;28;20046;-80
2021/07/17 01:45:58;;;;;;;18.73;11.13;;;;;;;;;;6149359;28;20125;-80
2021/07/17 01:49:00;;;;;;;20.27;12.60;;;;;;;;;;6155557;28;20717;-80
2021/07/17 01:52:02;;;;;;;21.97;11.40;;;;;;;;;;6139440;28;20122;-80
2021/07/17 01:55:08;;;;;;;24.47;11.80;;;;;;;;;;6118518;29;20112;-80
2021/07/17 01:58:11;;;;;;;26.95;11.75;;;;;;;;;;6100835;29;20792;-80
2021/07/17 02:01:12;;;;;;;21.88;11.70;;;;;;;;;;6117340;29;20152;-80
2021/07/17 02:04:14;;;;;;;20.40;10.40;;;;;;;;;;6138894;29;20043;-80
2021/07/17 02:07:18;;;;;;;21.80;11.25;;;;;;;;;;6125686;29;20044;-80
2021/07/17 02:10:25;;;;;;;18.25;11.02;;;;;;;;;;6145529;28;20047;-80
2021/07/17 02:13:28;;;;;;;16.48;10.68;;;;;;;;;;6146164;28;20090;-81
2021/07/17 02:16:31;;;;;;;19.02;10.95;;;;;;;;;;6148871;28;20050;-80
2021/07/17 02:19:33;;;;;;;23.33;11.60;;;;;;;;;;6149812;28;20130;-80
2021/07/17 02:22:34;;;;;;;23.33;10.83;;;;;;;;;;6147735;28;20098;-80
2021/07/17 02:25:36;;;;;;;18.50;10.88;;;;;;;;;;6162115;28;20791;-80
2021/07/17 02:28:39;;;;;;;18.08;9.60;;;;;;;;;;6147998;28;20047;-80
2021/07/17 02:31:41;;;;;;;20.20;10.85;;;;;;;;;;6145174;28;20122;-80
2021/07/17 02:34:43;;;;;;;17.83;9.90;;;;;;;;;;6124619;29;20762;-80
2021/07/17 02:37:45;;;;;;;16.17;9.95;;;;;;;;;;6125313;29;20083;-80
2021/07/17 02:40:46;;;;;;;17.55;9.40;;;;;;;;;;6125768;29;20130;-80
2021/07/17 02:43:48;;;;;;;18.02;9.75;;;;;;;;;;6101817;29;20056;-80
2021/07/17 02:46:50;;;;;;;19.67;9.50;;;;;;;;;;6105558;29;20119;-80
2021/07/17 02:49:52;;;;;;;15.73;9.17;;;;;;;;;;6098406;29;20128;-79
2021/07/17 02:52:54;;;;;;;14.13;9.15;;;;;;;;;;6098697;29;20682;-79
2021/07/17 02:55:55;;;;;;;18.25;9.43;;;;;;;;;;6098786;29;20059;-79
2021/07/17 02:58:57;;;;;;;19.23;10.98;;;;;;;;;;6112961;29;20068;-80
2021/07/17 03:01:59;;;;;;;20.23;10.38;;;;;;;;;;6112340;29;20462;-79
2021/07/17 03:05:02;;;;;;;19.85;10.00;;;;;;;;;;6097384;29;20052;-80
2021/07/17 03:08:05;;;;;;;18.52;10.05;;;;;;;;;;6120582;29;20119;-79
2021/07/17 03:11:06;;;;;;;20.10;9.80;;;;;;;;;;6136316;28;20048;-80
2021/07/17 03:14:08;;;;;;;18.55;10.52;;;;;;;;;;6121977;29;20127;-80
2021/07/17 03:17:12;;;;;;;17.80;10.02;;;;;;;;;;6131200;28;20039;-80
2021/07/17 03:20:13;;;;;;;16.08;10.52;;;;;;;;;;6125265;28;20401;-79
2021/07/17 03:23:15;;;;;;;15.88;9.90;;;;;;;;;;6160916;28;20121;-80
2021/07/17 03:26:17;;;;;;;16.63;10.35;;;;;;;;;;6127013;28;20116;-80
2021/07/17 03:29:18;;;;;;;17.27;9.90;;;;;;;;;;6113990;29;20096;-80
2021/07/17 03:32:22;;;;;;;18.63;9.90;;;;;;;;;;6113936;29;20040;-80
2021/07/17 03:35:24;;;;;;;19.38;9.60;;;;;;;;;;6099558;29;20044;-80
2021/07/17 03:38:25;;;;;;;17.10;9.80;;;;;;;;;;6098126;29;20043;-79
2021/07/17 03:41:27;;;;;;;20.20;10.40;;;;;;;;;;6099605;29;20135;-79
2021/07/17 03:44:30;;;;;;;18.05;9.77;;;;;;;;;;6097155;29;20176;-80
2021/07/17 03:47:31;;;;;;;20.00;10.55;;;;;;;;;;6104276;29;20526;-80
2021/07/17 03:50:33;;;;;;;19.65;10.48;;;;;;;;;;6113047;29;20124;-80
2021/07/17 03:53:35;;;;;;;22.60;11.07;;;;;;;;;;6098876;29;20123;-80
2021/07/17 03:56:36;;;;;;;21.15;11.02;;;;;;;;;;6099415;29;20059;-81
2021/07/17 03:59:38;;;;;;;17.58;10.15;;;;;;;;;;6099263;29;20134;-81
2021/07/17 04:02:44;;;;;;;18.90;10.23;;;;;;;;;;6098997;29;20071;-81
2021/07/17 04:05:46;;;;;;;18.67;10.05;;;;;;;;;;6096872;29;20044;-81
2021/07/17 04:08:47;;;;;;;18.52;10.60;;;;;;;;;;6098937;29;20048;-81
2021/07/17 04:11:50;;;;;;;16.90;9.82;;;;;;;;;;6098505;29;20055;-80
2021/07/17 04:14:52;;;;;;;20.23;9.98;;;;;;;;;;6111970;29;20489;-80
2021/07/17 04:17:53;;;;;;;13.95;9.95;;;;;;;;;;6112116;29;20528;-80
2021/07/17 04:20:55;;;;;;;17.23;10.23;;;;;;;;;;6129875;28;20103;-81
2021/07/17 04:23:56;;;;;;;17.27;9.90;;;;;;;;;;6145054;28;20035;-81
2021/07/17 04:26:58;;;;;;;18.25;9.50;;;;;;;;;;6120976;28;20062;-81
2021/07/17 04:30:00;;;;;;;18.77;10.35;;;;;;;;;;6096637;29;20151;-81
2021/07/17 04:33:02;;;;;;;17.37;9.53;;;;;;;;;;6097958;29;20048;-80
2021/07/17 04:36:04;;;;;;;17.58;10.15;;;;;;;;;;6097261;29;20100;-81
2021/07/17 04:39:06;;;;;;;15.73;10.40;;;;;;;;;;6097762;29;20068;-81
2021/07/17 04:42:08;;;;;;;17.27;10.30;;;;;;;;;;6119661;29;20075;-81
2021/07/17 04:45:10;;;;;;;15.88;10.15;;;;;;;;;;6118706;29;20126;-81
2021/07/17 04:48:12;;;;;;;16.30;10.57;;;;;;;;;;6112669;29;20152;-80
2021/07/17 04:51:13;;;;;;;15.55;9.98;;;;;;;;;;6099214;29;20112;-81
2021/07/17 04:54:15;;;;;;;20.80;10.52;;;;;;;;;;6097214;29;20208;-81
2021/07/17 04:57:17;;;;;;;15.93;9.82;;;;;;;;;;6095335;29;20048;-80
2021/07/17 05:00:20;;;;;;;16.60;10.45;;;;;;;;;;6095688;29;20108;-80
2021/07/17 05:03:21;;;;;;;16.80;10.02;;;;;;;;;;6110848;29;20131;-80
2021/07/17 05:06:23;;;;;;;18.65;10.00;;;;;;;;;;6094515;29;20524;-79
2021/07/17 05:09:25;;;;;;;14.85;10.02;;;;;;;;;;6096617;29;20096;-80
2021/07/17 05:12:26;;;;;;;17.92;10.55;;;;;;;;;;6138788;28;20063;-80
2021/07/17 05:15:28;;;;;;;16.15;10.70;;;;;;;;;;6141593;28;20705;-81
2021/07/17 05:18:30;;;;;;;14.50;9.82;;;;;;;;;;6122185;29;20122;-80
2021/07/17 05:21:31;;;;;;;15.85;10.52;;;;;;;;;;6132774;28;20597;-80
2021/07/17 05:24:33;;;;;;;22.63;11.25;;;;;;;;;;6157340;28;20043;-80
2021/07/17 05:27:35;;;;;;;16.83;11.13;;;;;;;;;;6130698;28;20067;-80
2021/07/17 05:30:37;;;;;;;19.55;11.20;;;;;;;;;;6133994;29;20051;-80
2021/07/17 05:33:38;;;;;;;19.05;11.00;;;;;;;;;;6119398;28;20581;-80
2021/07/17 05:36:40;;;;;;;24.40;12.93;;;;;;;;;;6132767;28;20391;-80
2021/07/17 05:39:42;;;;;;;21.27;11.95;;;;;;;;;;6119348;29;20126;-79
2021/07/17 05:42:43;;;;;;;24.45;12.77;;;;;;;;;;6118790;29;20070;-80
2021/07/17 05:45:45;;;;;;;23.00;12.90;;;;;;;;;;6121006;28;20059;-80
2021/07/17 05:48:47;;;;;;;23.23;13.50;;;;;;;;;;6143950;28;20505;-80
2021/07/17 05:51:48;;;;;;;30.45;14.30;;;;;;;;;;6145959;28;20105;-80
2021/07/17 05:54:50;;;;;;;25.50;13.55;;;;;;;;;;6144505;28;20062;-80
2021/07/17 05:57:52;;;;;;;25.33;13.63;;;;;;;;;;6123869;28;20092;-80
2021/07/17 06:00:53;;;;;;;25.50;13.50;;;;;;;;;;6120735;29;20178;-81
2021/07/17 06:03:55;;;;;;;27.23;13.80;;;;;;;;;;6119937;29;20048;-81
2021/07/17 06:06:57;;;;;;;27.20;13.48;;;;;;;;;;6122293;29;20093;-81
2021/07/17 06:09:59;;;;;;;26.08;14.13;;;;;;;;;;6120845;29;20046;-81
2021/07/17 06:13:01;;;;;;;25.67;12.75;;;;;;;;;;6122929;29;20465;-80
2021/07/17 06:16:03;;;;;;;28.30;13.98;;;;;;;;;;6121944;29;20470;-81
2021/07/17 06:19:05;;;;;;;25.43;13.17;;;;;;;;;;6120827;29;20051;-80
2021/07/17 06:22:08;;;;;;;26.23;13.63;;;;;;;;;;6148255;28;20075;-79
2021/07/17 06:25:10;;;;;;;24.15;13.27;;;;;;;;;;6131986;28;20641;-79
2021/07/17 06:28:11;;;;;;;24.63;13.25;;;;;;;;;;6120788;29;20125;-80
2021/07/17 06:31:13;;;;;;;23.38;13.88;;;;;;;;;;6121191;28;20060;-80
2021/07/17 06:34:15;;;;;;;30.50;13.85;;;;;;;;;;6119690;29;20130;-80
2021/07/17 06:37:17;;;;;;;28.30;13.77;;;;;;;;;;6135836;29;20183;-80
2021/07/17 06:40:18;;;;;;;27.33;13.50;;;;;;;;;;6122154;29;20079;-81
2021/07/17 06:43:20;;;;;;;20.35;12.90;;;;;;;;;;6144152;28;20103;-80
2021/07/17 06:46:22;;;;;;;26.60;13.35;;;;;;;;;;6143721;28;20616;-79
2021/07/17 06:49:23;;;;;;;21.67;12.60;;;;;;;;;;6122239;29;20119;-79
2021/07/17 06:52:25;;;;;;;21.63;12.30;;;;;;;;;;6120149;29;20111;-79
2021/07/17 06:55:27;;;;;;;18.85;11.88;;;;;;;;;;6121423;29;20542;-79
2021/07/17 06:58:28;;;;;;;20.15;11.35;;;;;;;;;;6121488;29;20043;-79
2021/07/17 07:01:30;;;;;;;17.52;11.48;;;;;;;;;;6122215;29;20059;-80
2021/07/17 07:04:32;;;;;;;18.20;10.52;;;;;;;;;;6116827;28;20078;-79
2021/07/17 07:07:35;;;;;;;17.83;10.02;;;;;;;;;;6154284;28;20047;-79
2021/07/17 07:10:37;;;;;;;15.48;9.43;;;;;;;;;;6135933;28;20105;-79
2021/07/17 07:13:39;;;;;;;15.60;9.60;;;;;;;;;;6141226;28;20130;-79
2021/07/17 07:16:41;;;;;;;13.67;8.83;;;;;;;;;;6142498;28;20058;-79
2021/07/17 07:19:43;;;;;;;12.98;9.43;;;;;;;;;;6144471;28;20130;-79
2021/07/17 07:22:45;;;;;;;12.15;8.07;;;;;;;;;;6144082;28;20115;-79
2021/07/17 07:25:47;;;;;;;11.30;8.23;;;;;;;;;;6142119;28;20058;-80
2021/07/17 07:28:56;;;;;;;12.85;7.90;;;;;;;;;;6140031;28;20057;-79
2021/07/17 07:31:59;;;;;;;9.13;7.40;;;;;;;;;;6115253;28;20130;-79
2021/07/17 07:35:02;;;;;;;9.88;7.50;;;;;;;;;;6121357;28;20043;-79
2021/07/17 07:38:04;;;;;;;10.75;6.82;;;;;;;;;;6120777;28;20047;-79
2021/07/17 07:41:05;;;;;;;11.93;7.78;;;;;;;;;;6111517;28;20104;-80
2021/07/17 07:44:07;;;;;;;12.27;6.63;;;;;;;;;;6098327;29;20044;-80
2021/07/17 07:47:09;;;;;;;10.85;7.20;;;;;;;;;;6102216;29;20164;-80
2021/07/17 07:50:11;;;;;;;11.95;7.10;;;;;;;;;;6097988;29;20065;-80
2021/07/17 07:53:13;;;;;;;11.73;7.85;;;;;;;;;;6112716;29;20063;-81
2021/07/17 07:56:14;;;;;;;9.13;6.55;;;;;;;;;;6096050;29;20043;-79
2021/07/17 07:59:16;;;;;;;9.65;7.00;;;;;;;;;;6097918;29;20067;-80
2021/07/17 08:02:18;;;;;;;9.25;6.80;;;;;;;;;;6097602;29;20059;-80
2021/07/17 08:05:19;;;;;;;12.20;7.40;;;;;;;;;;6104067;28;20051;-79
2021/07/17 08:08:21;;;;;;;9.73;6.40;;;;;;;;;;6117545;28;20043;-79
2021/07/17 08:11:23;;;;;;;10.35;6.88;;;;;;;;;;6116055;28;20599;-79
2021/07/17 08:14:25;;;;;;;9.85;6.90;;;;;;;;;;6118185;28;20120;-79
2021/07/17 08:17:26;;;;;;;9.20;6.75;;;;;;;;;;6113145;28;20528;-79
2021/07/17 08:20:28;;;;;;;9.48;6.35;;;;;;;;;;6119137;28;21711;-79
2021/07/17 08:23:30;;;;;;;9.37;6.60;;;;;;;;;;6131114;28;20051;-79
2021/07/17 08:26:32;;;;;;;8.05;6.82;;;;;;;;;;6117383;28;20096;-79
2021/07/17 08:29:33;;;;;;;12.80;7.45;;;;;;;;;;6132938;28;20048;-79
2021/07/17 08:32:35;;;;;;;12.82;6.55;;;;;;;;;;6117600;28;20516;-79
2021/07/17 08:35:37;;;;;;;13.68;6.00;;;;;;;;;;6117688;28;20072;-80
2021/07/17 08:38:39;;;;;;;10.70;7.23;;;;;;;;;;6118784;28;20047;-80
2021/07/17 08:41:47;;;;;;;8.98;6.38;;;;;;;;;;6096797;29;20136;-79
2021/07/17 08:44:49;;;;;;;9.13;6.53;;;;;;;;;;6095712;29;20080;-86
2021/07/17 08:47:53;;;;;;;9.15;6.47;;;;;;;;;;6096666;29;20060;-79
2021/07/17 08:50:55;;;;;;;10.55;6.47;;;;;;;;;;6097029;29;20143;-80
2021/07/17 08:53:57;;;;;;;10.82;6.70;;;;;;;;;;6110966;29;20129;-81
2021/07/17 08:56:59;;;;;;;9.27;6.25;;;;;;;;;;6095837;29;20131;-81
2021/07/17 09:00:07;;;;;;;9.73;6.75;;;;;;;;;;6079108;29;20128;-81
2021/07/17 09:03:23;;;;;;;9.82;6.53;;;;;;;;;;6110595;29;20052;-80
2021/07/17 09:06:25;;;;;;;11.95;7.10;;;;;;;;;;6100448;29;20044;-79
2021/07/17 09:09:38;;;;;;;10.23;6.68;;;;;;;;;;6098146;29;20080;-80
2021/07/17 09:12:40;;;;;;;14.60;7.50;;;;;;;;;;6086380;29;20421;-82
2021/07/17 09:15:47;;;;;;;11.63;6.75;;;;;;;;;;6102521;29;20056;-79
2021/07/17 09:18:53;;;;;;;12.18;6.82;;;;;;;;;;6119292;29;20048;-79
2021/07/17 09:21:55;;;;;;;12.35;6.78;;;;;;;;;;6141511;28;20132;-80
2021/07/17 09:25:15;;;;;;;10.60;7.07;;;;;;;;;;6148334;28;20075;-79
2021/07/17 09:28:30;;;;;;;14.02;7.40;;;;;;;;;;6143317;29;20059;-79
2021/07/17 09:31:35;;;;;;;11.60;6.88;;;;;;;;;;6128219;29;20064;-79
2021/07/17 09:34:37;;;;;;;12.18;7.00;;;;;;;;;;6126205;29;20043;-79
2021/07/17 09:37:39;;;;;;;11.27;7.07;;;;;;;;;;6126944;29;20524;-79
2021/07/17 09:40:56;;;;;;;10.80;7.30;;;;;;;;;;6126190;29;20505;-79
2021/07/17 09:44:02;;;;;;;9.20;7.10;;;;;;;;;;6126187;29;20172;-79
2021/07/17 09:47:14;;;;;;;10.82;7.25;;;;;;;;;;6132464;28;20510;-79
2021/07/17 09:50:17;;;;;;;11.23;7.15;;;;;;;;;;6124037;29;20063;-79
2021/07/17 09:53:35;;;;;;;;;;;;;;;;;;6123407;29;20448;-79
2021/07/17 09:56:42;;;;;;;9.68;6.85;;;;;;;;;;6123091;29;20067;-79
2021/07/17 10:00:04;;;;;;;11.82;7.25;;;;;;;;;;6141426;29;20469;-80
2021/07/17 10:03:34;;;;;;;14.02;7.75;;;;;;;;;;6137937;28;20068;-79
2021/07/17 10:06:44;;;;;;;12.90;7.90;;;;;;;;;;6100324;28;20051;-79
2021/07/17 10:09:49;;;;;;;12.95;7.80;;;;;;;;;;6098840;29;20748;-79
2021/07/17 10:12:58;;;;;;;12.55;8.35;;;;;;;;;;6115886;29;20052;-79
2021/07/17 10:15:59;;;;;;;12.63;8.07;;;;;;;;;;6100547;29;20092;-79
2021/07/17 10:19:01;;;;;;;14.65;8.52;;;;;;;;;;6106046;29;20047;-79
2021/07/17 10:22:04;;;;;;;13.70;8.50;;;;;;;;;;6141211;28;20113;-79
2021/07/17 10:25:12;;;;;;;11.05;8.15;;;;;;;;;;6143401;28;20044;-79
2021/07/17 10:28:13;;;;;;;13.00;8.38;;;;;;;;;;6139021;29;20556;-79
2021/07/17 10:31:15;;;;;;;13.93;8.43;;;;;;;;;;6122366;28;20497;-80
2021/07/17 10:34:19;;;;;;;13.17;8.83;;;;;;;;;;6138709;29;20047;-80
2021/07/17 10:37:26;;;;;;;12.38;8.65;;;;;;;;;;6124392;29;20447;-79
2021/07/17 10:40:28;;;;;;;16.35;9.13;;;;;;;;;;6117893;28;20072;-79
2021/07/17 10:43:31;;;;;;;12.02;8.77;;;;;;;;;;6123051;29;20058;-79
2021/07/17 10:46:41;;;;;;;16.27;8.90;;;;;;;;;;6144290;28;20458;-81
2021/07/17 10:49:53;;;;;;;13.20;9.25;;;;;;;;;;6145272;28;20191;-80
2021/07/17 10:52:55;;;;;;;11.73;9.00;;;;;;;;;;6146550;28;20051;-80
2021/07/17 10:55:57;;;;;;;12.10;8.60;;;;;;;;;;6143693;28;20175;-79
2021/07/17 10:59:07;;;;;;;12.37;8.50;;;;;;;;;;6145520;28;20039;-79
2021/07/17 11:02:10;;;;;;;12.73;8.88;;;;;;;;;;6141497;28;20640;-77
2021/07/17 11:05:35;;;;;;;13.10;9.25;;;;;;;;;;6139361;28;20047;-77
2021/07/17 11:08:38;;;;;;;13.30;9.27;;;;;;;;;;6140998;28;20248;-76
2021/07/17 11:11:40;;;;;;;15.05;9.38;;;;;;;;;;6123146;28;20105;-76
2021/07/17 11:14:41;;;;;;;15.95;9.10;;;;;;;;;;6116843;29;20054;-76
2021/07/17 11:17:45;;;;;;;11.57;9.17;;;;;;;;;;6115134;29;20536;-77
2021/07/17 11:20:46;;;;;;;13.18;9.40;;;;;;;;;;6123297;28;20055;-77
2021/07/17 11:23:48;;;;;;;16.00;10.10;;;;;;;;;;6154605;28;20174;-76
2021/07/17 11:27:12;;;;;;;12.90;9.07;;;;;;;;;;6122961;28;20136;-76
2021/07/17 11:30:16;;;;;;;14.80;9.50;;;;;;;;;;6114932;29;20111;-76
2021/07/17 11:33:17;;;;;;;12.98;9.38;;;;;;;;;;6130891;28;20560;-76
2021/07/17 11:36:25;;;;;;;14.50;10.17;;;;;;;;;;6115007;29;20138;-76
2021/07/17 11:39:29;;;;;;;13.77;10.10;;;;;;;;;;6130744;29;20410;-76
2021/07/17 11:42:36;;;;;;;13.95;9.85;;;;;;;;;;6131345;28;20068;-77
2021/07/17 11:45:39;;;;;;;15.77;10.02;;;;;;;;;;6116902;28;20043;-76
2021/07/17 11:48:41;;;;;;;13.77;9.90;;;;;;;;;;6134599;28;20187;-76
2021/07/17 11:51:51;;;;;;;13.43;9.77;;;;;;;;;;6116561;29;20202;-76
2021/07/17 11:54:55;;;;;;;12.70;10.43;;;;;;;;;;6130070;28;20577;-76
2021/07/17 11:57:57;;;;;;;13.98;10.10;;;;;;;;;;6116553;29;20421;-75
2021/07/17 12:01:04;;;;;;;13.25;9.57;;;;;;;;;;6130773;29;20044;-75
2021/07/17 12:04:06;;;;;;;12.50;9.98;;;;;;;;;;6116041;29;20050;-75
2021/07/17 12:07:11;;;;;;;11.40;9.50;;;;;;;;;;6116127;29;20518;-75
2021/07/17 12:10:16;;;;;;;12.45;10.00;;;;;;;;;;6115163;28;20126;-76
2021/07/17 12:13:22;;;;;;;13.05;10.20;;;;;;;;;;6130405;28;20130;-75
2021/07/17 12:16:24;;;;;;;14.25;10.00;;;;;;;;;;6116036;28;20051;-76
2021/07/17 12:19:27;;;;;;;11.25;10.00;;;;;;;;;;6115893;29;20123;-76
2021/07/17 12:22:30;;;;;;;15.35;10.05;;;;;;;;;;6137178;28;20055;-76
2021/07/17 12:25:35;;;;;;;10.23;9.15;;;;;;;;;;6133466;28;20055;-76
2021/07/17 12:28:37;;;;;;;12.75;10.32;;;;;;;;;;6116434;29;20043;-76
2021/07/17 12:31:39;;;;;;;12.38;9.85;;;;;;;;;;6116309;28;20071;-75
2021/07/17 12:34:40;;;;;;;12.45;9.73;;;;;;;;;;6115608;29;20126;-75
2021/07/17 12:37:42;;;;;;;13.88;10.23;;;;;;;;;;6114069;29;20134;-76
2021/07/17 12:40:58;;;;;;;11.43;9.82;;;;;;;;;;6115848;28;20135;-76
2021/07/17 12:44:02;;;;;;;13.02;10.20;;;;;;;;;;6114195;29;20874;-76
2021/07/17 12:47:04;;;;;;;13.73;10.50;;;;;;;;;;6121267;28;20071;-77
2021/07/17 12:50:06;;;;;;;12.70;9.95;;;;;;;;;;6115595;29;20572;-76
2021/07/17 12:53:10;;;;;;;14.48;10.93;;;;;;;;;;6115657;29;20134;-76
2021/07/17 12:56:14;;;;;;;13.32;10.55;;;;;;;;;;6129727;28;20043;-76
2021/07/17 12:59:28;;;;;;;15.90;10.68;;;;;;;;;;6142917;28;20497;-76
2021/07/17 13:02:30;;;;;;;14.23;10.50;;;;;;;;;;6125073;28;20054;-76
2021/07/17 13:05:45;;;;;;;;;;;;;;;;;;6139719;28;20047;-75
2021/07/17 13:09:00;;;;;;;14.10;9.85;;;;;;;;;;6140154;28;19926;-75
2021/07/17 13:12:07;;;;;;;15.25;9.38;;;;;;;;;;6141896;28;20528;-75
2021/07/17 13:15:14;;;;;;;14.25;11.05;;;;;;;;;;6139910;28;20055;-76
2021/07/17 13:18:21;;;;;;;13.05;10.27;;;;;;;;;;6140366;28;20078;-75
2021/07/17 13:21:39;;;;;;;15.63;10.80;;;;;;;;;;6142089;28;20194;-75
2021/07/17 13:24:47;;;;;;;14.20;10.10;;;;;;;;;;6140399;28;20389;-75
2021/07/17 13:27:49;;;;;;;12.35;9.90;;;;;;;;;;6150703;28;20055;-76
2021/07/17 13:30:50;;;;;;;14.02;10.02;;;;;;;;;;6140226;28;20035;-76
2021/07/17 13:34:11;;;;;;;13.30;11.02;;;;;;;;;;6138725;28;20082;-75
2021/07/17 13:37:13;;;;;;;15.13;9.85;;;;;;;;;;6141922;28;20043;-75
2021/07/17 13:40:30;;;;;;;15.45;10.07;;;;;;;;;;6140582;28;20115;-75
2021/07/17 13:43:31;;;;;;;11.95;9.20;;;;;;;;;;6141648;28;20046;-76
2021/07/17 13:46:33;;;;;;;12.35;9.60;;;;;;;;;;6131950;28;20074;-75
2021/07/17 13:49:35;;;;;;;11.50;9.90;;;;;;;;;;6133178;29;20047;-76
2021/07/17 13:52:37;;;;;;;10.95;9.20;;;;;;;;;;6120715;29;20069;-76
2021/07/17 13:55:41;;;;;;;;;;;;;;;;;;6116682;29;20119;-77
2021/07/17 13:58:42;;;;;;;11.52;9.32;;;;;;;;;;6119575;29;20017;-77
2021/07/17 14:01:44;;;;;;;10.85;9.02;;;;;;;;;;6117655;28;20118;-77
2021/07/17 14:04:46;;;;;;;13.18;9.65;;;;;;;;;;6118174;29;20433;-76
2021/07/17 14:07:47;;;;;;;10.38;9.27;;;;;;;;;;6117261;29;20048;-76
2021/07/17 14:10:56;;;;;;;12.25;9.15;;;;;;;;;;6133338;29;20123;-77
2021/07/17 14:13:58;;;;;;;9.30;7.43;;;;;;;;;;6116764;29;20052;-77
2021/07/17 14:16:59;;;;;;;9.10;8.25;;;;;;;;;;6117526;28;20039;-76
2021/07/17 14:20:01;;;;;;;9.00;7.88;;;;;;;;;;6119985;28;20130;-77
2021/07/17 14:23:04;;;;;;;8.70;7.88;;;;;;;;;;6157649;28;20045;-77
2021/07/17 14:26:06;;;;;;;9.38;8.30;;;;;;;;;;6137420;28;20055;-77
2021/07/17 14:29:08;;;;;;;;;;;;;;;;;;6134404;29;20050;-75
2021/07/17 14:32:09;;;;;;;10.13;7.88;;;;;;;;;;6112696;29;19974;-76
2021/07/17 14:35:11;;;;;;;11.18;8.27;;;;;;;;;;6117784;28;20047;-79
2021/07/17 14:38:13;;;;;;;10.00;8.75;;;;;;;;;;6126967;28;20580;-80
2021/07/17 14:41:15;;;;;;;8.98;7.88;;;;;;;;;;6107860;28;20190;-80
2021/07/17 14:44:17;;;;;;;12.88;9.60;;;;;;;;;;6124252;29;20125;-80
2021/07/17 14:47:19;;;;;;;10.82;8.73;;;;;;;;;;6132088;28;20075;-80
2021/07/17 14:50:20;;;;;;;11.07;9.02;;;;;;;;;;6126523;29;20063;-80
2021/07/17 14:53:22;;;;;;;11.20;8.60;;;;;;;;;;6139357;29;20050;-80
2021/07/17 14:56:25;;;;;;;12.80;8.18;;;;;;;;;;6123287;29;20123;-80
2021/07/17 14:59:26;;;;;;;11.88;8.30;;;;;;;;;;6124777;29;20043;-80
2021/07/17 15:02:28;;;;;;;12.75;8.85;;;;;;;;;;6130146;28;20048;-80
2021/07/17 15:05:30;;;;;;;9.70;8.10;;;;;;;;;;6123009;29;20136;-80
2021/07/17 15:08:32;;;;;;;10.18;7.80;;;;;;;;;;6126050;29;20067;-79
2021/07/17 15:11:34;;;;;;;9.68;7.60;;;;;;;;;;6124404;29;20191;-80
2021/07/17 15:14:35;;;;;;;10.38;8.10;;;;;;;;;;6123711;29;20070;-80
2021/07/17 15:17:37;;;;;;;8.45;7.50;;;;;;;;;;6136651;28;20058;-80
2021/07/17 15:20:39;;;;;;;12.05;7.63;;;;;;;;;;6147636;28;20035;-80
2021/07/17 15:23:42;;;;;;;11.07;7.30;;;;;;;;;;6150169;28;20054;-80
2021/07/17 15:26:44;;;;;;;11.70;7.35;;;;;;;;;;6148019;28;20107;-80
2021/07/17 15:29:46;;;;;;;10.65;7.07;;;;;;;;;;6149439;28;20098;-80
2021/07/17 15:32:48;;;;;;;9.73;6.90;;;;;;;;;;6150295;28;20051;-80
2021/07/17 15:35:49;;;;;;;9.32;6.88;;;;;;;;;;6125252;29;20557;-81
2021/07/17 15:38:51;;;;;;;13.32;6.40;;;;;;;;;;6128563;28;20078;-80
2021/07/17 15:41:53;;;;;;;8.82;6.53;;;;;;;;;;6149566;28;20051;-80
2021/07/17 15:45:21;;;;;;;11.38;6.15;;;;;;;;;;6139688;28;20071;-80
2021/07/17 15:48:23;;;;;;;9.27;6.68;;;;;;;;;;6159447;28;20043;-80
2021/07/17 15:51:25;;;;;;;10.63;6.70;;;;;;;;;;6149623;28;20050;-80
2021/07/17 15:54:26;;;;;;;9.80;6.82;;;;;;;;;;6163371;28;20047;-80
2021/07/17 15:57:28;;;;;;;9.48;6.75;;;;;;;;;;6134870;28;20317;-80
2021/07/17 16:00:30;;;;;;;10.70;7.18;;;;;;;;;;6132587;28;20051;-80
2021/07/17 16:03:32;;;;;;;8.95;6.75;;;;;;;;;;6158552;28;20047;-80
2021/07/17 16:06:34;;;;;;;10.65;6.70;;;;;;;;;;6143551;28;20043;-80
2021/07/17 16:09:36;;;;;;;8.30;6.90;;;;;;;;;;6146175;28;20050;-80
2021/07/17 16:12:38;;;;;;;8.57;6.75;;;;;;;;;;6117154;29;20047;-80
2021/07/17 16:15:39;;;;;;;10.77;6.72;;;;;;;;;;6124473;29;20052;-80
2021/07/17 16:18:41;;;;;;;10.15;6.63;;;;;;;;;;6131508;28;20047;-80
2021/07/17 16:21:44;;;;;;;10.48;6.20;;;;;;;;;;6148588;28;20054;-80
2021/07/17 16:24:46;;;;;;;8.13;5.78;;;;;;;;;;6165961;28;20039;-80
2021/07/17 16:27:47;;;;;;;9.13;5.50;;;;;;;;;;6140843;28;20048;-82
2021/07/17 16:30:49;;;;;;;5.93;5.22;;;;;;;;;;6123896;28;20056;-80
2021/07/17 16:33:51;;;;;;;8.20;5.40;;;;;;;;;;6145625;28;20063;-80
2021/07/17 16:36:53;;;;;;;9.05;5.20;;;;;;;;;;6163304;28;20075;-80
2021/07/17 16:39:54;;;;;;;10.32;4.80;;;;;;;;;;6123887;28;20046;-79
2021/07/17 16:42:56;;;;;;;6.82;4.20;;;;;;;;;;6123219;29;20121;-81
2021/07/17 16:45:58;;;;;;;7.85;3.90;;;;;;;;;;6127749;28;20126;-80
2021/07/17 16:48:59;;;;;;;8.57;3.97;;;;;;;;;;6126370;28;20039;-80
2021/07/17 16:52:01;;;;;;;7.03;3.70;;;;;;;;;;6124042;29;21174;-80
2021/07/17 16:55:04;;;;;;;;;;;;;;;;;;6127860;28;20050;-80
2021/07/17 16:58:09;;;;;;;4.18;2.95;;;;;;;;;;6125478;29;19954;-80
2021/07/17 17:01:10;;;;;;;4.55;2.80;;;;;;;;;;6124467;29;20046;-80
2021/07/17 17:04:12;;;;;;;4.43;2.80;;;;;;;;;;6135423;28;20051;-80
2021/07/17 17:07:14;;;;;;;4.87;2.83;;;;;;;;;;6146815;28;20066;-81
2021/07/17 17:10:16;;;;;;;2.92;2.60;;;;;;;;;;6129982;28;20043;-80
2021/07/17 17:13:22;;;;;;;4.40;2.40;;;;;;;;;;6143600;28;20047;-80
2021/07/17 17:16:24;;;;;;;4.00;2.30;;;;;;;;;;6161264;28;20050;-80
2021/07/17 17:19:25;;;;;;;4.38;1.92;;;;;;;;;;6119411;29;20103;-80
2021/07/17 17:22:27;;;;;;;5.80;2.33;;;;;;;;;;6135862;28;20055;-77
2021/07/17 17:25:32;;;;;;;5.90;2.00;;;;;;;;;;6121961;28;20171;-78
2021/07/17 17:28:35;;;;;;;5.93;1.98;;;;;;;;;;6132615;28;20051;-77
2021/07/17 17:31:37;;;;;;;3.30;1.88;;;;;;;;;;6147296;28;20135;-77
2021/07/17 17:34:39;;;;;;;2.88;1.95;;;;;;;;;;6133366;28;20048;-76
2021/07/17 17:37:42;;;;;;;4.35;1.90;;;;;;;;;;6116999;28;20150;-76
2021/07/17 17:40:43;;;;;;;3.50;1.75;;;;;;;;;;6136821;28;20047;-77
2021/07/17 17:43:46;;;;;;;;;;;;;;;;;;6144400;28;20044;-76
2021/07/17 17:46:49;;;;;;;4.28;1.90;;;;;;;;;;6139042;28;19927;-76
2021/07/17 17:49:51;;;;;;;6.30;1.90;;;;;;;;;;6163721;28;20047;-76
2021/07/17 17:52:53;;;;;;;3.73;1.77;;;;;;;;;;6144203;28;20129;-78
2021/07/17 17:55:55;;;;;;;5.07;1.80;;;;;;;;;;6142102;28;20469;-76
2021/07/17 17:58:56;;;;;;;5.75;2.00;;;;;;;;;;6138068;28;20070;-76
2021/07/17 18:01:58;;;;;;;2.83;1.88;;;;;;;;;;6139034;28;20075;-77